»·PEaware :: N733XB KCRQ-KONT

N733XB :: KCRQ-KONT

FLIGHT INFORMATION

Flight Status: Arrived
Operator: Privately registered:
United States
More flights under this callsign
Pilot: Maurice Mouchawar (7578)
Aircraft: CESSNA 172 SKYHAWK
(C172)
More flights by this aircraft type
Origin: KCRQ McClellan-Palomar
United States
Destination: KONT Ontario Intl
United States
More flights between these airports :: More routes between these airports
Route: +OCN V23 DANAH V363 POXKU V8 PDZ
File this flight plan on PilotEdge
Remarks: tec SANN19
Altitude:
(Current/Filed)
6,000ft
Speed:
(Current/Filed)
110kts
Departed: 10-Jan-17 07:57 PM
Arrived: 10-Jan-17 08:50 PM
Distance/Time
Traveled:
58nm/0:53
Distance/Time
To Go:
Arrived

Flight Plot

Page will automatically refresh every two minutes.


Map Options




Map Legend


Flown Route
Filed Route
Departure Airport
Arrival Airport
Navaid (VOR, NDB)
Fix

Horizontal Profiles

Position Reports

Time Latitude Longitude Heading Altitude Ground
Speed
10-Jan-17 19:43 33.126258 -117.283382 80 312ft 0kts
10-Jan-17 19:44 33.126258 -117.283382 80 312ft 0kts
10-Jan-17 19:45 33.126258 -117.283382 80 312ft 0kts
10-Jan-17 19:46 33.126258 -117.283382 80 312ft 0kts
10-Jan-17 19:47 33.126258 -117.283382 80 312ft 0kts
10-Jan-17 19:48 33.126258 -117.283382 80 312ft 0kts
10-Jan-17 19:49 33.126258 -117.283382 80 312ft 0kts
10-Jan-17 19:50 33.126258 -117.283382 80 312ft 0kts
10-Jan-17 19:51 33.126258 -117.283382 80 312ft 0kts
10-Jan-17 19:52 33.126733 -117.282732 40 313ft 4kts
10-Jan-17 19:53 33.127329 -117.280663 79 311ft 11kts
10-Jan-17 19:54 33.127958 -117.276633 78 312ft 12kts
10-Jan-17 19:55 33.128640 -117.272772 42 301ft 0kts
10-Jan-17 19:56 33.128640 -117.272772 42 301ft 0kts
10-Jan-17 19:57 33.129012 -117.275702 258 312ft 63kts
10-Jan-17 19:58 33.123409 -117.303993 258 1267ft 88kts
10-Jan-17 19:59 33.119606 -117.329423 259 2496ft 73kts
10-Jan-17 20:00 33.127493 -117.348211 318 3533ft 70kts
10-Jan-17 20:01 33.140974 -117.362761 332 4586ft 61kts
10-Jan-17 20:02 33.156438 -117.370373 338 5521ft 61kts
10-Jan-17 20:03 33.171922 -117.379491 331 6126ft 67kts
10-Jan-17 20:04 33.190305 -117.388856 338 6107ft 96kts
10-Jan-17 20:05 33.213055 -117.398871 337 6040ft 102kts
10-Jan-17 20:06 33.238889 -117.413704 322 5880ft 103kts
10-Jan-17 20:07 33.259588 -117.434460 325 6007ft 96kts
10-Jan-17 20:08 33.279282 -117.457148 310 5952ft 100kts
10-Jan-17 20:09 33.295239 -117.482789 315 5956ft 102kts
10-Jan-17 20:10 33.313932 -117.504848 316 6009ft 98kts
10-Jan-17 20:11 33.332230 -117.527039 316 6006ft 98kts
10-Jan-17 20:12 33.351248 -117.550049 316 6006ft 99kts
10-Jan-17 20:13 33.370500 -117.573306 316 6006ft 99kts
10-Jan-17 20:14 33.389869 -117.596668 316 6006ft 99kts
10-Jan-17 20:15 33.406960 -117.617015 316 6005ft 98kts
10-Jan-17 20:16 33.425168 -117.637828 316 6005ft 98kts
10-Jan-17 20:17 33.446062 -117.658323 318 6002ft 99kts
10-Jan-17 20:18 33.468012 -117.678412 316 6027ft 97kts
10-Jan-17 20:19 33.493888 -117.692120 333 5978ft 109kts
10-Jan-17 20:20 33.521513 -117.704313 331 5928ft 107kts
10-Jan-17 20:21 33.549272 -117.708523 344 5994ft 116kts
10-Jan-17 20:22 33.580636 -117.714384 336 6052ft 112kts
10-Jan-17 20:23 33.611696 -117.723117 342 6092ft 117kts
10-Jan-17 20:24 33.644140 -117.730268 338 6003ft 118kts
10-Jan-17 20:25 33.676545 -117.734020 345 5967ft 116kts
10-Jan-17 20:26 33.702437 -117.741497 326 5963ft 107kts
10-Jan-17 20:27 33.723589 -117.754687 324 5983ft 104kts
10-Jan-17 20:28 33.746310 -117.766118 331 6055ft 108kts
10-Jan-17 20:29 33.769116 -117.774730 337 6033ft 111kts
10-Jan-17 20:30 33.790475 -117.781496 335 6018ft 110kts
10-Jan-17 20:31 33.808020 -117.788355 335 6010ft 111kts
10-Jan-17 20:32 33.826801 -117.788711 359 5972ft 118kts
10-Jan-17 20:33 33.846190 -117.785434 3 5969ft 118kts
10-Jan-17 20:34 33.859555 -117.767418 77 5941ft 131kts
10-Jan-17 20:35 33.863459 -117.740190 73 6038ft 128kts
10-Jan-17 20:36 33.868412 -117.712678 73 6012ft 130kts
10-Jan-17 20:37 33.870789 -117.690787 80 6077ft 128kts
10-Jan-17 20:38 33.874297 -117.667178 77 6055ft 131kts
10-Jan-17 20:39 33.882558 -117.633916 68 5977ft 136kts
10-Jan-17 20:40 33.889026 -117.603966 77 5989ft 135kts
10-Jan-17 20:41 33.895413 -117.582179 58 6013ft 133kts
10-Jan-17 20:42 33.909716 -117.548780 59 5974ft 136kts
10-Jan-17 20:43 33.920076 -117.530459 25 5922ft 131kts
10-Jan-17 20:44 33.936349 -117.526042 359 5925ft 123kts
10-Jan-17 20:45 33.955152 -117.522649 359 5575ft 120kts
10-Jan-17 20:46 33.987396 -117.520074 346 3959ft 126kts
10-Jan-17 20:47 34.018768 -117.532295 341 2535ft 109kts
10-Jan-17 20:48 34.043010 -117.545960 318 1820ft 92kts
10-Jan-17 20:49 34.055036 -117.568303 273 1149ft 73kts
10-Jan-17 20:50 34.054941 -117.588449 270 922ft 29kts
10-Jan-17 20:51 34.054006 -117.589760 231 917ft 5kts
10-Jan-17 20:52 34.053844 -117.594273 268 917ft 21kts
10-Jan-17 20:53 34.053825 -117.602908 270 917ft 25kts
10-Jan-17 20:54 34.053836 -117.608674 270 921ft 16kts

Navigation Log

Ident Type
1. KCRQ Airport
2. OCN Navaid
3. KELPS Fix
4. DANAH Fix
5. ELB Navaid
6. JOGIT Fix
7. POXKU Fix
8. EBITE Fix
9. PDZ Navaid
10. KONT Airport